Benet Lake, WI (53102)

12:35 PM CDT on May 20, 2018 (GMT -0500)
87th & 184th Ave, Highway D | | Change Station

Elev 730 ft 42.55 °N, 88.03 °W | Updated 25 seconds ago

Light Rain
Light Rain
45.1 °F
Feels Like 45 °F
N
3.0
Wind Variable Wind from NNE
Gusts 13.0 mph

Today
High -- | Low -- °F
--% Chance of Precip.
Yesterday
High -- | Low -- °F
Precip. -- in
Pressure 30.24 in
Visibility 10.0 miles
Clouds Mostly Cloudy 600 ft
Mostly Cloudy 7000 ft
Overcast 9000 ft
Windchill 45 °F
Dew Point 44 °F
Humidity 95%
Rainfall 0.38 in
Snow Depth Not available.
5:25 AM 8:12 PM
Waxing Crescent, 34% visible
METAR KENW 201653Z 03010G19KT 10SM -RA BKN006 BKN070 OVC090 07/05 A3023 RMK AO2 SLP239 P0009 T00720050
Pressure 30.24 in
Visibility 10.0 miles
Clouds Mostly Cloudy 600 ft
Mostly Cloudy 7000 ft
Overcast 9000 ft
Windchill 45 °F
Dew Point 44 °F
Humidity 95%
Rainfall 0.38 in
Snow Depth Not available.
5:25 AM 8:12 PM
Waxing Crescent, 34% visible
METAR KENW 201653Z 03010G19KT 10SM -RA BKN006 BKN070 OVC090 07/05 A3023 RMK AO2 SLP239 P0009 T00720050

Get Severe Weather Alerts

Thanks for signing up!

Be on the lookout for a verification email in your inbox.

You'll start receiving the daily forecast at 6 AM.

×

10-Day Weather Forecast

Almanac

Astronomy

May. 20, 2018 Rise Set
Actual Time
Civil Twilight
Nautical Twilight
Astronomical Twilight
Moon
Length of Visible Light
Length of Day
Tomorrow will be .
, % of the Moon is Illuminated

Today's Extremes

State Highs State Lows

Community

WunderPhotos

Category 6

Welcome to Category 6. This is the collective home for Weather Underground's featured writeups by Dr. Jeff Masters (right), Bob Henson (left), Chris Burt, and other regular contributors.

Nearby

Air Quality

  Air Quality AQ Index Pollutant
Not available.

Snow Depth

Station Depth Elevation

Earthquake Activity

City Distance Mag. Time & Date
Minimum magnitude displayed is 2.5.

Coastal Water Temperatures

Place Temperature

Stations

Nearby Weather Stations

Station Location Temp. Windchill Dew Point Humidity Wind Precip. Elev Updated Type
                   

Watches & Warnings

There are currently no watches in effect.